createdAt,value
2023-08-16T00:00:51.675Z,99.99
2023-08-16T00:01:51.668Z,99.99
2023-08-16T00:02:51.743Z,99.99
2023-08-16T00:03:52.071Z,99.99
2023-08-16T00:04:51.776Z,99.99
2023-08-16T00:05:51.629Z,99.99
2023-08-16T00:06:51.579Z,99.99
2023-08-16T00:07:51.594Z,99.99
2023-08-16T00:08:51.556Z,99.99
2023-08-16T00:09:51.567Z,99.99
2023-08-16T00:10:51.561Z,99.99
2023-08-16T00:11:51.529Z,99.99
2023-08-16T00:12:51.530Z,99.99
2023-08-16T00:13:51.517Z,99.99
2023-08-16T00:14:51.495Z,99.99
2023-08-16T00:15:51.499Z,99.99
2023-08-16T00:16:51.498Z,99.99
2023-08-16T00:17:51.502Z,99.99
2023-08-16T00:18:51.447Z,99.99
2023-08-16T00:19:51.651Z,99.99
2023-08-16T00:20:51.475Z,99.99
2023-08-16T00:21:51.635Z,99.99
2023-08-16T00:22:51.424Z,99.99
2023-08-16T00:23:51.456Z,99.99
2023-08-16T00:24:51.401Z,99.99
2023-08-16T00:25:51.615Z,99.99
2023-08-16T00:26:51.366Z,99.99
2023-08-16T00:27:51.780Z,99.99
2023-08-16T00:28:51.353Z,99.99
2023-08-16T00:29:51.343Z,99.99
2023-08-16T00:30:51.403Z,99.99
2023-08-16T00:31:51.526Z,99.99
2023-08-16T00:32:51.329Z,99.99
2023-08-16T00:33:51.310Z,99.99
2023-08-16T00:34:51.282Z,99.99
2023-08-16T00:35:51.280Z,99.99
2023-08-16T00:36:51.298Z,99.99
2023-08-16T00:37:51.279Z,99.99
2023-08-16T00:38:51.650Z,99.99
2023-08-16T00:39:51.236Z,99.99
2023-08-16T00:40:51.234Z,99.99
2023-08-16T00:41:51.215Z,99.99
2023-08-16T00:42:51.616Z,99.99
2023-08-16T00:43:51.397Z,99.99
2023-08-16T00:44:51.193Z,99.99
2023-08-16T00:45:51.192Z,99.99
2023-08-16T00:46:51.198Z,99.99
2023-08-16T00:47:51.174Z,99.99
2023-08-16T00:48:51.134Z,99.99
2023-08-16T00:49:51.136Z,99.99
2023-08-16T00:50:51.146Z,99.99
2023-08-16T00:51:51.107Z,99.99
2023-08-16T00:52:51.111Z,99.99
2023-08-16T00:53:51.296Z,99.99
2023-08-16T00:54:51.097Z,99.99
2023-08-16T00:55:51.343Z,99.99
2023-08-16T00:56:51.058Z,99.99
2023-08-16T00:57:51.072Z,99.99
2023-08-16T00:58:51.025Z,99.99
2023-08-16T00:59:51.032Z,99.99
2023-08-16T01:00:51.046Z,99.99
2023-08-16T01:01:51.067Z,99.99
2023-08-16T01:02:51.266Z,99.99
2023-08-16T01:03:51.064Z,99.99
2023-08-16T01:04:50.975Z,99.99
2023-08-16T01:05:51.172Z,99.99
2023-08-16T01:06:50.938Z,99.99
2023-08-16T01:07:51.171Z,99.99
2023-08-16T01:08:51.152Z,99.99
2023-08-16T01:09:50.929Z,99.99
2023-08-16T01:10:50.931Z,99.99
2023-08-16T01:11:50.900Z,99.99
2023-08-16T01:12:50.884Z,99.99
2023-08-16T01:13:50.873Z,99.99
2023-08-16T01:14:50.872Z,99.99
2023-08-16T01:15:50.896Z,99.99
2023-08-16T01:16:51.043Z,99.99
2023-08-16T01:17:50.862Z,99.99
2023-08-16T01:18:50.808Z,99.99
2023-08-16T01:19:51.220Z,99.99
2023-08-16T01:20:50.821Z,99.99
2023-08-16T01:21:50.792Z,99.99
2023-08-16T01:22:50.779Z,99.99
2023-08-16T01:23:50.767Z,99.99
2023-08-16T01:24:50.786Z,99.99
2023-08-16T01:25:50.755Z,99.99
2023-08-16T01:26:50.934Z,99.99
2023-08-16T01:27:50.753Z,99.99
2023-08-16T01:28:50.711Z,99.99
2023-08-16T01:29:50.709Z,99.99
2023-08-16T01:30:50.692Z,99.99
2023-08-16T01:31:50.727Z,99.99
2023-08-16T01:32:50.940Z,99.99
2023-08-16T01:33:50.679Z,99.99
2023-08-16T01:34:50.644Z,99.99
2023-08-16T01:35:50.684Z,99.99
2023-08-16T01:36:50.623Z,99.99
2023-08-16T01:37:50.617Z,99.99
2023-08-16T01:38:50.595Z,99.99
2023-08-16T01:39:50.594Z,99.99
2023-08-16T01:40:50.604Z,99.99
2023-08-16T01:41:50.575Z,99.99
2023-08-16T01:42:50.565Z,99.99
2023-08-16T01:43:50.555Z,99.99
2023-08-16T01:44:50.530Z,99.99
2023-08-16T01:45:50.803Z,99.99
2023-08-16T01:46:50.561Z,99.99
2023-08-16T01:47:50.536Z,99.99
2023-08-16T01:48:50.497Z,99.99
2023-08-16T01:49:50.493Z,99.99
2023-08-16T01:50:50.470Z,99.99
2023-08-16T01:51:50.473Z,99.99
2023-08-16T01:52:50.450Z,99.99
2023-08-16T01:53:50.445Z,99.99
2023-08-16T01:54:50.429Z,99.99
2023-08-16T01:55:50.425Z,99.99
2023-08-16T01:56:50.427Z,99.99
2023-08-16T01:57:50.409Z,99.99
2023-08-16T01:58:50.405Z,99.99
2023-08-16T01:59:50.383Z,99.99
2023-08-16T02:00:50.369Z,99.99
2023-08-16T02:01:50.511Z,99.99
2023-08-16T02:02:50.456Z,99.99
2023-08-16T02:03:50.346Z,99.99
2023-08-16T02:04:50.317Z,99.99
2023-08-16T02:05:50.323Z,99.99
2023-08-16T02:06:50.296Z,99.99
2023-08-16T02:07:50.296Z,99.99
2023-08-16T02:08:50.279Z,99.99
2023-08-16T02:09:50.282Z,99.99
2023-08-16T02:10:50.264Z,99.99
2023-08-16T02:11:50.267Z,99.99
2023-08-16T02:12:50.260Z,99.99
2023-08-16T02:13:50.245Z,99.99
2023-08-16T02:14:50.219Z,99.99
2023-08-16T02:15:51.346Z,99.99
2023-08-16T02:16:50.193Z,99.99
2023-08-16T02:17:50.212Z,99.99
2023-08-16T02:18:50.183Z,99.99
2023-08-16T02:19:50.168Z,99.99
2023-08-16T02:20:50.153Z,99.99
2023-08-16T02:21:50.144Z,99.99
2023-08-16T02:22:50.132Z,99.99
2023-08-16T02:23:50.129Z,99.99
2023-08-16T02:24:50.104Z,99.99
2023-08-16T02:25:50.107Z,99.99
2023-08-16T02:26:50.094Z,99.99
2023-08-16T02:27:50.088Z,99.99
2023-08-16T02:28:50.095Z,99.99
2023-08-16T02:29:50.070Z,99.99
2023-08-16T02:30:50.069Z,99.99
2023-08-16T02:31:50.054Z,99.99
2023-08-16T02:32:50.080Z,99.99
2023-08-16T02:33:50.012Z,99.99
2023-08-16T02:34:50.004Z,99.99
2023-08-16T02:35:50.003Z,99.99
2023-08-16T02:36:49.985Z,99.99
2023-08-16T02:37:49.991Z,99.99
2023-08-16T02:38:49.967Z,99.99
2023-08-16T02:39:49.946Z,99.99
2023-08-16T02:40:49.946Z,99.99
2023-08-16T02:41:51.355Z,99.99
2023-08-16T02:42:49.923Z,99.99
2023-08-16T02:43:49.919Z,99.99
2023-08-16T02:44:49.931Z,99.99
2023-08-16T02:45:49.882Z,99.99
2023-08-16T02:46:49.917Z,99.99
2023-08-16T02:47:49.893Z,99.99
2023-08-16T02:48:49.859Z,99.99
2023-08-16T02:49:49.847Z,99.99
2023-08-16T02:50:49.859Z,99.99
2023-08-16T02:51:49.816Z,99.99
2023-08-16T02:52:49.821Z,99.99
2023-08-16T02:53:49.802Z,99.99
2023-08-16T02:54:49.811Z,99.99
2023-08-16T02:55:49.778Z,99.99
2023-08-16T02:56:49.771Z,99.99
2023-08-16T02:57:49.772Z,99.99
2023-08-16T02:58:49.768Z,99.99
2023-08-16T02:59:49.746Z,99.99
2023-08-16T03:00:49.810Z,99.99
2023-08-16T03:01:49.751Z,99.99
2023-08-16T03:02:49.785Z,99.99
2023-08-16T03:03:49.701Z,99.99
2023-08-16T03:04:49.691Z,99.99
2023-08-16T03:05:49.669Z,99.99
2023-08-16T03:06:49.741Z,99.99
2023-08-16T03:07:49.663Z,99.99
2023-08-16T03:08:49.658Z,99.99
2023-08-16T03:09:49.636Z,99.99
2023-08-16T03:10:49.624Z,99.99
2023-08-16T03:11:49.605Z,99.99
2023-08-16T03:12:49.612Z,99.99
2023-08-16T03:13:49.587Z,99.99
2023-08-16T03:14:49.588Z,99.99
2023-08-16T03:15:49.566Z,99.99
2023-08-16T03:16:49.613Z,99.99
2023-08-16T03:17:49.607Z,99.99
2023-08-16T03:18:49.543Z,99.99
2023-08-16T03:19:49.529Z,99.99
2023-08-16T03:20:49.525Z,99.99
2023-08-16T03:21:49.511Z,99.99
2023-08-16T03:22:49.509Z,99.99
2023-08-16T03:23:49.477Z,99.99
2023-08-16T03:24:49.495Z,99.99
2023-08-16T03:25:49.460Z,99.99
2023-08-16T03:26:49.466Z,99.99
2023-08-16T03:27:49.449Z,99.99
2023-08-16T03:28:49.441Z,99.99
2023-08-16T03:29:49.425Z,99.99
2023-08-16T03:30:49.449Z,99.99
2023-08-16T03:31:49.392Z,99.99
2023-08-16T03:32:49.457Z,99.99
2023-08-16T03:33:49.388Z,99.99
2023-08-16T03:34:49.379Z,99.99
2023-08-16T03:35:49.374Z,99.99
2023-08-16T03:36:49.364Z,99.99
2023-08-16T03:37:49.337Z,99.99
2023-08-16T03:38:49.332Z,99.99
2023-08-16T03:39:49.318Z,99.99
2023-08-16T03:40:49.325Z,99.99
2023-08-16T03:41:49.293Z,99.99
2023-08-16T03:42:49.290Z,99.99
2023-08-16T03:43:49.274Z,99.99
2023-08-16T03:44:49.272Z,99.99
2023-08-16T03:45:49.259Z,99.99
2023-08-16T03:46:49.249Z,99.99
2023-08-16T03:47:49.254Z,99.99
2023-08-16T03:48:49.254Z,99.99
2023-08-16T03:49:49.206Z,99.99
2023-08-16T03:50:49.220Z,99.99
2023-08-16T03:51:49.186Z,99.99
2023-08-16T03:52:49.187Z,99.99
2023-08-16T03:53:49.167Z,99.99
2023-08-16T03:54:49.163Z,99.99
2023-08-16T03:55:49.145Z,99.99
2023-08-16T03:56:49.083Z,99.99
2023-08-16T03:57:49.150Z,99.99
2023-08-16T03:58:49.173Z,99.99
2023-08-16T03:59:49.046Z,99.99
2023-08-16T04:00:49.058Z,99.99
2023-08-16T04:01:49.040Z,99.99
2023-08-16T04:02:49.108Z,99.99
2023-08-16T04:03:49.016Z,99.99
2023-08-16T04:04:49.028Z,99.99
2023-08-16T04:05:48.988Z,99.99
2023-08-16T04:06:48.989Z,99.99
2023-08-16T04:07:48.961Z,99.99
2023-08-16T04:08:48.960Z,99.99
2023-08-16T04:09:48.971Z,99.99
2023-08-16T04:10:48.950Z,99.99
2023-08-16T04:11:48.928Z,99.99
2023-08-16T04:12:48.922Z,99.99
2023-08-16T04:13:48.900Z,99.99
2023-08-16T04:14:48.895Z,99.99
2023-08-16T04:15:48.888Z,99.99
2023-08-16T04:16:48.879Z,99.99
2023-08-16T04:17:48.923Z,99.99
2023-08-16T04:18:48.854Z,99.99
2023-08-16T04:19:48.906Z,99.99
2023-08-16T04:20:48.858Z,99.99
2023-08-16T04:21:48.823Z,99.99
2023-08-16T04:22:48.822Z,99.99
2023-08-16T04:23:48.800Z,99.99
2023-08-16T04:24:48.811Z,99.99
2023-08-16T04:25:48.776Z,99.99
2023-08-16T04:26:50.890Z,99.99
2023-08-16T04:27:48.768Z,99.99
2023-08-16T04:28:48.802Z,99.99
2023-08-16T04:29:48.739Z,99.99
2023-08-16T04:30:48.732Z,99.99
2023-08-16T04:31:48.741Z,99.99
2023-08-16T04:32:48.774Z,99.99
2023-08-16T04:33:48.686Z,99.99
2023-08-16T04:34:48.695Z,99.99
2023-08-16T04:35:48.671Z,99.99
2023-08-16T04:36:48.694Z,99.99
2023-08-16T04:37:48.648Z,99.99
2023-08-16T04:38:48.656Z,99.99
2023-08-16T04:39:48.632Z,99.99
2023-08-16T04:40:48.634Z,99.99
2023-08-16T04:41:48.608Z,99.99
2023-08-16T04:42:48.604Z,99.99
2023-08-16T04:43:48.588Z,99.99
2023-08-16T04:44:48.599Z,99.99
2023-08-16T04:45:48.594Z,99.99
2023-08-16T04:46:48.572Z,99.99
2023-08-16T04:47:48.559Z,99.99
2023-08-16T04:48:48.544Z,99.99
2023-08-16T04:49:48.530Z,99.99
2023-08-16T04:50:48.510Z,99.99
2023-08-16T04:51:48.497Z,99.99
2023-08-16T04:52:48.602Z,99.99
2023-08-16T04:53:48.479Z,99.99
2023-08-16T04:54:48.483Z,99.99
2023-08-16T04:55:48.470Z,99.99
2023-08-16T04:56:48.463Z,99.99
2023-08-16T04:57:48.456Z,99.99
2023-08-16T04:58:48.438Z,99.99
2023-08-16T04:59:48.427Z,99.99
2023-08-16T05:00:48.423Z,99.99
2023-08-16T05:01:48.427Z,99.99
2023-08-16T05:02:48.411Z,99.99
2023-08-16T05:03:48.373Z,99.99
2023-08-16T05:04:48.377Z,99.99
2023-08-16T05:05:48.356Z,99.99
2023-08-16T05:06:48.352Z,99.99
2023-08-16T05:07:48.332Z,99.99
2023-08-16T05:08:48.365Z,99.99
2023-08-16T05:09:48.304Z,99.99
2023-08-16T05:10:48.313Z,99.99
2023-08-16T05:11:48.289Z,99.99
2023-08-16T05:12:48.290Z,99.99
2023-08-16T05:13:48.265Z,99.99
2023-08-16T05:14:48.256Z,99.99
2023-08-16T05:15:48.269Z,99.99
2023-08-16T05:16:48.253Z,99.99
2023-08-16T05:17:48.245Z,99.99
2023-08-16T05:18:48.231Z,99.99
2023-08-16T05:19:48.206Z,99.99
2023-08-16T05:20:48.198Z,99.99
2023-08-16T05:21:48.194Z,99.99
2023-08-16T05:22:48.178Z,99.99
2023-08-16T05:23:48.156Z,99.99
2023-08-16T05:24:48.191Z,99.99
2023-08-16T05:25:48.146Z,99.99
2023-08-16T05:26:48.132Z,99.99
2023-08-16T05:27:48.121Z,99.99
2023-08-16T05:28:48.124Z,99.99
2023-08-16T05:29:48.122Z,99.99
2023-08-16T05:30:48.094Z,99.99
2023-08-16T05:31:48.071Z,99.99
2023-08-16T05:32:48.129Z,99.99
2023-08-16T05:33:48.170Z,99.99
2023-08-16T05:34:48.059Z,99.99
2023-08-16T05:35:48.036Z,99.99
2023-08-16T05:36:48.024Z,99.99
2023-08-16T05:37:48.012Z,99.99
2023-08-16T05:38:48.006Z,99.99
2023-08-16T05:39:47.989Z,99.99
2023-08-16T05:40:48.026Z,99.99
2023-08-16T05:41:47.973Z,99.99
2023-08-16T05:42:47.971Z,99.99
2023-08-16T05:43:47.948Z,99.99
2023-08-16T05:44:47.980Z,99.99
2023-08-16T05:45:47.929Z,99.99
2023-08-16T05:46:47.994Z,99.99
2023-08-16T05:47:47.932Z,99.99
2023-08-16T05:48:47.908Z,99.99
2023-08-16T05:49:47.882Z,99.99
2023-08-16T05:50:47.895Z,99.99
2023-08-16T05:51:47.870Z,99.99
2023-08-16T05:52:47.863Z,99.99
2023-08-16T05:53:47.850Z,99.99
2023-08-16T05:54:47.845Z,99.99
2023-08-16T05:55:47.817Z,99.99
2023-08-16T05:56:47.845Z,99.99
2023-08-16T05:57:47.812Z,99.99
2023-08-16T05:58:47.803Z,99.99
2023-08-16T05:59:47.784Z,99.99
2023-08-16T06:00:47.830Z,99.99
2023-08-16T06:01:47.762Z,99.99
2023-08-16T06:02:47.786Z,99.99
2023-08-16T06:03:47.763Z,99.99
2023-08-16T06:04:47.729Z,99.99
2023-08-16T06:05:47.712Z,99.99
2023-08-16T06:06:47.711Z,99.99
2023-08-16T06:07:47.694Z,99.99
2023-08-16T06:08:47.692Z,99.99
2023-08-16T06:09:47.673Z,99.99
2023-08-16T06:10:47.672Z,99.99
2023-08-16T06:11:47.677Z,99.99
2023-08-16T06:12:47.679Z,99.99
2023-08-16T06:13:47.639Z,99.99
2023-08-16T06:14:47.633Z,99.99
2023-08-16T06:15:47.626Z,99.99
2023-08-16T06:16:47.627Z,99.99
2023-08-16T06:17:47.627Z,99.99
2023-08-16T06:18:47.599Z,99.99
2023-08-16T06:19:47.569Z,99.99
2023-08-16T06:20:47.584Z,99.99
2023-08-16T06:21:47.563Z,99.99
2023-08-16T06:22:47.549Z,99.99
2023-08-16T06:23:47.533Z,99.99
2023-08-16T06:24:47.532Z,99.99
2023-08-16T06:25:47.507Z,99.99
2023-08-16T06:26:47.502Z,99.99
2023-08-16T06:27:47.486Z,99.99
2023-08-16T06:28:47.542Z,99.99
2023-08-16T06:29:47.465Z,99.99
2023-08-16T06:30:47.493Z,99.99
2023-08-16T06:31:47.453Z,99.99
2023-08-16T06:32:47.469Z,99.99
2023-08-16T06:33:47.424Z,99.99
2023-08-16T06:34:47.416Z,99.99
2023-08-16T06:35:47.426Z,99.99
2023-08-16T06:36:47.429Z,99.99
2023-08-16T06:37:47.418Z,99.99
2023-08-16T06:38:47.378Z,99.99
2023-08-16T06:39:47.358Z,99.99
2023-08-16T06:40:47.433Z,99.99
2023-08-16T06:41:47.336Z,99.99
2023-08-16T06:42:47.348Z,99.99
2023-08-16T06:43:47.319Z,99.99
2023-08-16T06:44:47.403Z,99.99
2023-08-16T06:45:47.315Z,99.99
2023-08-16T06:46:47.319Z,99.99
2023-08-16T06:47:47.352Z,99.99
2023-08-16T06:48:47.272Z,99.99
2023-08-16T06:49:47.269Z,99.99
2023-08-16T06:50:47.251Z,99.99
2023-08-16T06:51:47.263Z,99.99
2023-08-16T06:52:47.229Z,99.99
2023-08-16T06:53:47.278Z,99.99
2023-08-16T06:54:47.205Z,99.99
2023-08-16T06:55:47.199Z,99.99
2023-08-16T06:56:47.176Z,99.99
2023-08-16T06:57:47.188Z,99.99
2023-08-16T06:58:47.164Z,99.99
2023-08-16T06:59:47.162Z,99.99
2023-08-16T07:00:47.219Z,99.99
2023-08-16T07:01:47.149Z,99.99
2023-08-16T07:02:47.212Z,99.99
2023-08-16T07:03:47.192Z,99.99
2023-08-16T07:04:47.099Z,97.38
2023-08-16T07:05:47.094Z,94.94
2023-08-16T07:06:47.071Z,96.08
2023-08-16T07:07:48.157Z,94.93
2023-08-16T07:08:47.050Z,95.62
2023-08-16T07:09:47.059Z,96.82
2023-08-16T07:10:47.049Z,97.91
2023-08-16T07:11:47.028Z,93.84
2023-08-16T07:12:47.013Z,96.73
2023-08-16T07:13:47.017Z,94.10
2023-08-16T07:14:46.988Z,93.45
2023-08-16T07:15:46.992Z,94.78
2023-08-16T07:16:47.053Z,95.98
2023-08-16T07:17:47.016Z,97.22
2023-08-16T07:18:46.951Z,99.51
2023-08-16T07:19:46.947Z,97.37
2023-08-16T07:20:46.933Z,96.77
2023-08-16T07:21:46.934Z,95.68
2023-08-16T07:22:46.915Z,95.05
2023-08-16T07:23:46.901Z,92.43
2023-08-16T07:24:46.897Z,92.05
2023-08-16T07:25:46.880Z,94.29
2023-08-16T07:26:46.866Z,89.78
2023-08-16T07:27:46.862Z,86.87
2023-08-16T07:28:46.842Z,86.57
2023-08-16T07:29:46.858Z,84.88
2023-08-16T07:30:46.829Z,84.41
2023-08-16T07:31:46.938Z,87.35
2023-08-16T07:32:46.858Z,83.83
2023-08-16T07:33:46.808Z,87.74
2023-08-16T07:34:46.789Z,88.15
2023-08-16T07:35:46.779Z,82.75
2023-08-16T07:36:46.769Z,81.45
2023-08-16T07:37:46.760Z,80.71
2023-08-16T07:38:46.763Z,79.83
2023-08-16T07:39:46.753Z,84.82
2023-08-16T07:40:46.720Z,84.24
2023-08-16T07:41:46.722Z,81.56
2023-08-16T07:42:46.711Z,84.66
2023-08-16T07:43:46.700Z,81.82
2023-08-16T07:44:46.682Z,81.11
2023-08-16T07:45:46.741Z,81.98
2023-08-16T07:46:46.681Z,79.47
2023-08-16T07:47:46.676Z,84.46
2023-08-16T07:48:46.657Z,83.53
2023-08-16T07:49:46.649Z,80.30
2023-08-16T07:50:46.626Z,81.92
2023-08-16T07:51:46.648Z,84.03
2023-08-16T07:52:46.621Z,82.83
2023-08-16T07:53:46.629Z,86.76
2023-08-16T07:54:47.281Z,86.41
2023-08-16T07:55:46.572Z,86.70
2023-08-16T07:56:46.554Z,84.82
2023-08-16T07:57:46.554Z,78.43
2023-08-16T07:58:46.539Z,75.27
2023-08-16T07:59:46.524Z,81.29
2023-08-16T08:00:46.522Z,76.22
2023-08-16T08:01:46.541Z,76.09
2023-08-16T08:02:57.488Z,75.34
2023-08-16T08:03:46.528Z,80.50
2023-08-16T08:04:46.608Z,81.86
2023-08-16T08:05:46.465Z,78.15
2023-08-16T08:06:46.450Z,79.96
2023-08-16T08:07:46.457Z,79.85
2023-08-16T08:08:46.437Z,82.39
2023-08-16T08:09:46.479Z,85.10
2023-08-16T08:10:46.411Z,87.67
2023-08-16T08:11:46.402Z,85.74
2023-08-16T08:12:46.399Z,85.68
2023-08-16T08:13:46.386Z,85.72
2023-08-16T08:14:46.363Z,85.13
2023-08-16T08:15:46.406Z,87.46
2023-08-16T08:16:46.351Z,90.64
2023-08-16T08:17:46.372Z,81.25
2023-08-16T08:18:46.336Z,79.41
2023-08-16T08:19:46.331Z,81.40
2023-08-16T08:20:46.329Z,75.33
2023-08-16T08:21:46.308Z,75.36
2023-08-16T08:22:46.294Z,78.13
2023-08-16T08:23:46.280Z,72.41
2023-08-16T08:24:46.389Z,71.95
2023-08-16T08:25:46.269Z,71.75
2023-08-16T08:26:46.250Z,70.94
2023-08-16T08:27:46.238Z,70.90
2023-08-16T08:28:46.245Z,68.45
2023-08-16T08:29:46.233Z,71.20
2023-08-16T08:30:46.209Z,72.24
2023-08-16T08:31:46.260Z,69.47
2023-08-16T08:32:46.217Z,66.49
2023-08-16T08:33:46.206Z,68.84
2023-08-16T08:34:46.195Z,68.32
2023-08-16T08:35:46.165Z,69.63
2023-08-16T08:36:46.218Z,69.95
2023-08-16T08:37:46.143Z,67.87
2023-08-16T08:38:46.124Z,66.43
2023-08-16T08:39:46.122Z,64.50
2023-08-16T08:40:46.112Z,69.17
2023-08-16T08:41:48.336Z,67.31
2023-08-16T08:42:46.081Z,67.96
2023-08-16T08:43:59.467Z,66.10
2023-08-16T08:44:47.113Z,65.19
2023-08-16T08:45:46.095Z,66.79
2023-08-16T08:46:46.051Z,66.14
2023-08-16T08:47:46.124Z,69.76
2023-08-16T08:48:46.029Z,67.31
2023-08-16T08:49:46.050Z,68.71
2023-08-16T08:50:46.014Z,68.23
2023-08-16T08:51:45.997Z,67.38
2023-08-16T08:52:46.017Z,70.51
2023-08-16T08:53:45.976Z,65.61
2023-08-16T08:54:45.964Z,66.49
2023-08-16T08:55:45.984Z,68.26
2023-08-16T08:56:45.940Z,65.97
2023-08-16T08:57:45.946Z,67.67
2023-08-16T08:58:46.061Z,67.60
2023-08-16T08:59:45.931Z,67.28
2023-08-16T09:00:45.902Z,64.58
2023-08-16T09:01:46.000Z,65.88
2023-08-16T09:02:45.914Z,63.67
2023-08-16T09:03:46.143Z,62.79
2023-08-16T09:04:45.871Z,62.92
2023-08-16T09:05:45.878Z,65.39
2023-08-16T09:06:45.848Z,64.09
2023-08-16T09:07:45.845Z,67.28
2023-08-16T09:08:45.856Z,64.93
2023-08-16T09:09:45.830Z,63.47
2023-08-16T09:10:45.807Z,65.68
2023-08-16T09:11:45.797Z,63.21
2023-08-16T09:12:45.790Z,66.17
2023-08-16T09:13:45.802Z,68.32
2023-08-16T09:14:45.765Z,63.70
2023-08-16T09:15:45.802Z,69.00
2023-08-16T09:16:45.736Z,63.96
2023-08-16T09:17:45.754Z,62.89
2023-08-16T09:18:45.720Z,61.23
2023-08-16T09:19:45.740Z,59.70
2023-08-16T09:20:45.712Z,68.78
2023-08-16T09:21:45.702Z,61.81
2023-08-16T09:22:45.713Z,64.80
2023-08-16T09:23:45.680Z,67.15
2023-08-16T09:24:45.717Z,64.15
2023-08-16T09:25:45.662Z,67.21
2023-08-16T09:26:45.641Z,71.55
2023-08-16T09:27:45.636Z,68.62
2023-08-16T09:28:45.626Z,68.09
2023-08-16T09:29:45.643Z,66.01
2023-08-16T09:30:45.606Z,65.23
2023-08-16T09:31:45.656Z,64.94
2023-08-16T09:32:45.613Z,64.93
2023-08-16T09:33:45.589Z,67.12
2023-08-16T09:35:45.572Z,72.49
2023-08-16T09:36:45.547Z,63.76
2023-08-16T09:37:45.548Z,66.04
2023-08-16T09:38:45.521Z,69.89
2023-08-16T09:39:45.538Z,71.27
2023-08-16T09:40:45.523Z,63.41
2023-08-16T09:41:45.518Z,61.95
2023-08-16T09:42:45.498Z,62.24
2023-08-16T09:43:45.475Z,59.75
2023-08-16T09:44:45.471Z,59.65
2023-08-16T09:45:45.474Z,60.62
2023-08-16T09:49:45.456Z,71.47
2023-08-16T09:52:45.385Z,78.41
2023-08-16T09:53:48.576Z,76.67
2023-08-16T09:54:45.442Z,76.12
2023-08-16T09:55:45.363Z,77.07
2023-08-16T09:57:46.404Z,71.33
2023-08-16T09:58:45.327Z,66.56
2023-08-16T09:59:45.322Z,62.17
2023-08-16T10:00:45.327Z,70.62
2023-08-16T10:03:59.819Z,61.86
2023-08-16T10:05:47.569Z,58.88
2023-08-16T10:07:45.240Z,54.29
2023-08-16T10:08:45.228Z,58.54
2023-08-16T10:09:45.244Z,60.06
2023-08-16T10:10:45.221Z,62.31
2023-08-16T10:11:45.211Z,58.83
2023-08-16T10:12:45.222Z,59.35
2023-08-16T10:13:45.188Z,58.59
2023-08-16T10:14:45.160Z,59.99
2023-08-16T10:15:45.169Z,60.40
2023-08-16T10:16:45.248Z,64.89
2023-08-16T10:17:45.156Z,66.92
2023-08-16T10:18:45.127Z,68.85
2023-08-16T10:19:45.776Z,69.18
2023-08-16T10:20:45.117Z,70.30
2023-08-16T10:21:45.096Z,68.69
2023-08-16T10:22:45.081Z,71.38
2023-08-16T10:23:45.089Z,70.69
2023-08-16T10:25:45.085Z,66.92
2023-08-16T10:26:45.049Z,61.84
2023-08-16T10:27:45.186Z,59.41
2023-08-16T10:28:45.053Z,56.91
2023-08-16T10:29:45.028Z,61.19
2023-08-16T10:31:13.354Z,62.17
2023-08-16T10:31:46.165Z,61.41
2023-08-16T10:32:45.024Z,62.48
2023-08-16T10:33:44.983Z,67.74
2023-08-16T10:34:44.982Z,67.96
2023-08-16T10:35:44.985Z,68.23
2023-08-16T10:36:44.940Z,70.75
2023-08-16T10:38:44.928Z,70.66
2023-08-16T10:39:45.113Z,73.25
2023-08-16T10:40:44.953Z,70.43
2023-08-16T10:41:44.931Z,72.69
2023-08-16T10:42:44.886Z,74.69
2023-08-16T10:43:46.390Z,70.03
2023-08-16T10:44:44.886Z,62.71
2023-08-16T10:45:58.893Z,59.49
2023-08-16T10:46:45.924Z,59.66
2023-08-16T10:47:44.891Z,60.66
2023-08-16T10:48:44.820Z,62.03
2023-08-16T10:49:44.821Z,63.73
2023-08-16T10:50:44.804Z,61.59
2023-08-16T10:51:44.801Z,58.77
2023-08-16T10:52:44.795Z,57.59
2023-08-16T10:53:44.792Z,53.97
2023-08-16T10:54:44.762Z,52.49
2023-08-16T10:55:44.774Z,54.91
2023-08-16T10:56:44.746Z,56.92
2023-08-16T10:57:44.750Z,55.81
2023-08-16T10:58:44.720Z,50.33
2023-08-16T10:59:44.731Z,52.39
2023-08-16T11:00:44.745Z,57.51
2023-08-16T11:01:44.785Z,53.82
2023-08-16T11:02:44.780Z,54.60
2023-08-16T11:03:44.684Z,55.65
2023-08-16T11:04:44.757Z,57.19
2023-08-16T11:05:44.653Z,58.93
2023-08-16T11:06:55.818Z,61.13
2023-08-16T11:07:45.686Z,61.39
2023-08-16T11:08:44.631Z,65.29
2023-08-16T11:09:44.615Z,64.80
2023-08-16T11:10:44.623Z,61.23
2023-08-16T11:11:44.593Z,61.15
2023-08-16T11:12:44.586Z,59.44
2023-08-16T11:13:44.574Z,59.16
2023-08-16T11:14:44.581Z,56.64
2023-08-16T11:15:44.570Z,53.88
2023-08-16T11:16:44.709Z,54.10
2023-08-16T11:17:46.943Z,56.41
2023-08-16T11:18:45.581Z,56.25
2023-08-16T11:19:44.633Z,60.26
2023-08-16T11:20:44.612Z,58.48
2023-08-16T11:21:44.920Z,56.70
2023-08-16T11:22:44.505Z,57.02
2023-08-16T11:23:44.482Z,55.73
2023-08-16T11:24:44.471Z,54.66
2023-08-16T11:25:44.465Z,55.73
2023-08-16T11:26:44.478Z,54.56
2023-08-16T11:27:44.447Z,55.49
2023-08-16T11:28:44.439Z,59.65
2023-08-16T11:29:44.423Z,58.97
2023-08-16T11:30:44.626Z,60.43
2023-08-16T11:31:44.446Z,60.79
2023-08-16T11:32:44.450Z,60.21
2023-08-16T11:33:44.394Z,55.98
2023-08-16T11:34:44.427Z,57.41
2023-08-16T11:35:44.363Z,56.17
2023-08-16T11:36:44.396Z,56.71
2023-08-16T11:37:44.345Z,57.11
2023-08-16T11:38:44.353Z,58.02
2023-08-16T11:39:44.318Z,57.65
2023-08-16T11:40:44.333Z,56.31
2023-08-16T11:41:44.318Z,58.00
2023-08-16T11:42:44.307Z,57.57
2023-08-16T11:43:44.287Z,59.85
2023-08-16T11:44:44.302Z,59.36
2023-08-16T11:45:44.480Z,62.09
2023-08-16T11:46:44.329Z,59.16
2023-08-16T11:47:44.679Z,58.45
2023-08-16T11:48:44.286Z,58.77
2023-08-16T11:49:44.228Z,58.83
2023-08-16T11:50:44.226Z,60.26
2023-08-16T11:51:44.207Z,61.59
2023-08-16T11:52:44.624Z,67.84
2023-08-16T11:53:44.197Z,66.56
2023-08-16T11:54:44.189Z,61.17
2023-08-16T11:55:44.382Z,66.66
2023-08-16T11:56:44.162Z,67.28
2023-08-16T11:57:44.362Z,66.82
2023-08-16T11:58:44.151Z,61.70
2023-08-16T11:59:44.134Z,59.38
2023-08-16T12:00:44.135Z,62.87
2023-08-16T12:01:44.121Z,64.56
2023-08-16T12:02:44.337Z,72.02
2023-08-16T12:03:44.156Z,70.32
2023-08-16T12:04:44.192Z,66.33
2023-08-16T12:05:44.278Z,68.56
2023-08-16T12:06:44.298Z,70.12
2023-08-16T12:07:44.066Z,68.26
2023-08-16T12:08:44.067Z,67.34
2023-08-16T12:09:44.229Z,64.60
2023-08-16T12:10:44.076Z,64.01
2023-08-16T12:11:44.004Z,65.16
2023-08-16T12:12:44.004Z,69.34
2023-08-16T12:13:44.006Z,63.56
2023-08-16T12:14:44.000Z,69.69
2023-08-16T12:15:44.095Z,63.04
2023-08-16T12:16:43.986Z,61.32
2023-08-16T12:17:44.155Z,61.91
2023-08-16T12:18:43.970Z,55.88
2023-08-16T12:19:43.942Z,57.42
2023-08-16T12:20:43.977Z,64.19
2023-08-16T12:21:44.115Z,57.33
2023-08-16T12:22:43.912Z,56.65
2023-08-16T12:23:43.899Z,62.37
2023-08-16T12:24:43.891Z,57.06
2023-08-16T12:25:43.876Z,59.67
2023-08-16T12:26:43.888Z,57.50
2023-08-16T12:27:44.079Z,62.50
2023-08-16T12:28:43.850Z,60.62
2023-08-16T12:29:43.832Z,60.50
2023-08-16T12:30:43.830Z,64.36
2023-08-16T12:31:43.882Z,53.30
2023-08-16T12:32:43.843Z,61.11
2023-08-16T12:33:43.860Z,59.52
2023-08-16T12:35:43.798Z,52.27
2023-08-16T12:36:44.023Z,53.15
2023-08-16T12:37:45.525Z,56.84
2023-08-16T12:38:43.963Z,51.47
2023-08-16T12:39:43.942Z,51.86
2023-08-16T12:40:43.740Z,51.72
2023-08-16T12:41:43.714Z,53.76
2023-08-16T12:42:43.731Z,52.56
2023-08-16T12:43:43.904Z,56.26
2023-08-16T12:44:43.690Z,57.11
2023-08-16T12:45:43.702Z,52.74
2023-08-16T12:46:43.683Z,52.27
2023-08-16T12:47:43.737Z,50.72
2023-08-16T12:48:43.822Z,52.59
2023-08-16T12:49:43.634Z,50.60
2023-08-16T12:50:43.631Z,49.94
2023-08-16T12:51:43.833Z,51.97
2023-08-16T12:52:43.815Z,56.73
2023-08-16T12:53:43.602Z,55.61
2023-08-16T12:54:43.590Z,61.34
2023-08-16T12:55:43.575Z,65.35
2023-08-16T12:56:46.544Z,61.57
2023-08-16T12:57:44.041Z,58.38
2023-08-16T12:59:51.698Z,63.37
2023-08-16T13:00:46.892Z,61.23
2023-08-16T13:01:43.578Z,59.00
2023-08-16T13:04:00.300Z,60.01
2023-08-16T13:04:57.621Z,61.74
2023-08-16T13:13:44.699Z,59.03
2023-08-16T13:14:46.456Z,60.04
2023-08-16T13:15:47.621Z,59.55
2023-08-16T13:16:45.583Z,61.12